Ka-Ho, Macao

6:17 AM CST on August 31, 2016 (GMT +0800)
Macau International | | Change Station

Elev 374 ft 22.16 °N, 113.57 °E | Updated 17 minutes ago

Scattered Clouds
Scattered Clouds
82 °F
Feels Like 91 °F
N
4
Wind Variable Wind from SW

Today
High -- | Low -- °F
--% Chance of Precip.
Yesterday
High -- | Low -- °F
Precip. -- in
Pressure 29.71 in
Visibility 6.2 miles
Clouds Few 1200 ft
Scattered Clouds 3000 ft
Heat Index 91 °F
Dew Point 77 °F
Humidity 84%
Rainfall 0.00 in
Snow Depth Not available.
6:08 AM 6:43 PM
Waning Crescent, 2% visible
METAR VMMC 302200Z 22003KT 9999 FEW012 SCT030 28/25 Q1006 NOSIG
Pressure 29.71 in
Visibility 6.2 miles
Clouds Few 1200 ft
Scattered Clouds 3000 ft
Heat Index 91 °F
Dew Point 77 °F
Humidity 84%
Rainfall 0.00 in
Snow Depth Not available.
6:08 AM 6:43 PM
Waning Crescent, 2% visible
METAR VMMC 302200Z 22003KT 9999 FEW012 SCT030 28/25 Q1006 NOSIG

10-Day Weather Forecast

No radar image for this location.
×

Almanac

Astronomy

Aug. 31, 2016 Rise Set
Actual Time
Civil Twilight
Nautical Twilight
Astronomical Twilight
Moon
Length of Visible Light
Length of Day
Tomorrow will be .
, % of the Moon is Illuminated

Today's Extremes

Country Highs Country Lows

Community

WunderPhotos

Upload Photos

1,935,911 photos uploaded!

WunderBlog® & News

Nearby

Air Quality

  Air Quality AQ Index Pollutant
Not available.

Snow Depth

Station Depth Elevation

Earthquake Activity

City Distance Mag. Time & Date
Minimum magnitude displayed is 2.5.

Coastal Water Temperatures

Place Temperature

Stations

Nearby Weather Stations

Station Location Temp. Windchill Dew Point Humidity Wind Precip. Elev Updated Type